Terminal Aerodrome Forecast
Issued by NWS

Home | Current Version | Previous Version | Text Only | Print | Product List | Glossary On
Versions: 1 2 3 4 5 6 7 8 9 10 11 12 13 14 15 16 17 18 19 20 21
000
FTAK31 PANC 241738
TAFAEN
TAF
PAEN 241738Z 2418/2518 VRB04KT 2SM BR OVC004
      TEMPO 2420/2422 5SM BR SCT004 OVC010
     FM242200 VRB03KT 5SM -SN BR OVC010
     FM250200 21007KT P6SM BKN050
     FM251000 VRB03KT P6SM VCFG SCT005 BKN020=

USA.gov is the U.S. government's official web portal to all federal, state and local government web resources and services.